メキシコシティ の空港の天気 - METARとTAF

メキシコ・シティ国際空港 ( MMMX / MEX ) - メキシコ メキシコシティ
飛行場実況気象(Metar)
観測時間10/22 23:45 CDT (10/23 04:45 UTC)
風向・風速東南東 4m/s
視程10km以上
天気現象
なし
気温16℃
湿度63%
気圧1027hPa
METARMMMX 230445Z 12008KT 10SM SKC 16/09 A3033 NOSIG RMK AC CI
過去の天気等 Google飛行場航空写真 Wunderground天気予報

過去48時間のMETAR

飛行場予報(TAF)
発表時間: 10/23 00:08 CDT (10/23 05:08 UTC)
予報対象時間: 23日1時 CDT ~ 24日7時 CDT
風向・風速南東 3m/s
視程10km以上
23日13時 CDT から
風向・風速南南東 6m/s
視程10km以上
全天の4割程度の雲 雲底高度 610m
23日21時 CDT から
風向・風速南南東 4m/s
視程10km以上
全天の4割程度の雲 雲底高度 610m
全天の4割程度の雲 雲底高度 2440m
TAF MMMX 230508Z 2306/2412 13005KT P6SM P6SM SCT010 TX23/2321Z TN14/2312Z
FM231800 16012KT P6SM SCT020
FM240200 16008KT P6SM SCT020 SCT080